createdAt,value
2022-12-20T00:01:36.138Z,3.80
2022-12-20T00:04:06.022Z,3.80
2022-12-20T00:06:35.881Z,3.80
2022-12-20T00:09:05.450Z,3.80
2022-12-20T00:11:32.976Z,3.80
2022-12-20T00:14:00.312Z,3.80
2022-12-20T00:16:29.458Z,3.80
2022-12-20T00:19:02.537Z,3.80
2022-12-20T00:21:32.273Z,3.70
2022-12-20T00:24:00.183Z,3.70
2022-12-20T00:26:31.121Z,3.70
2022-12-20T00:28:58.552Z,3.70
2022-12-20T00:31:28.323Z,3.60
2022-12-20T00:33:59.623Z,3.60
2022-12-20T00:36:29.149Z,3.60
2022-12-20T00:38:57.426Z,3.60
2022-12-20T00:41:27.321Z,3.60
2022-12-20T00:43:54.689Z,3.60
2022-12-20T00:46:23.685Z,3.50
2022-12-20T00:48:51.869Z,3.60
2022-12-20T00:51:23.214Z,3.60
2022-12-20T00:53:50.348Z,3.60
2022-12-20T00:56:18.761Z,3.60
2022-12-20T00:58:46.105Z,3.60
2022-12-20T01:01:23.617Z,3.60
2022-12-20T01:03:52.043Z,3.60
2022-12-20T01:06:20.222Z,3.50
2022-12-20T01:08:47.379Z,3.50
2022-12-20T01:11:22.216Z,3.50
2022-12-20T01:13:52.738Z,3.50
2022-12-20T01:16:27.267Z,3.40
2022-12-20T01:18:54.871Z,3.50
2022-12-20T01:21:23.844Z,3.50
2022-12-20T01:23:51.336Z,3.50
2022-12-20T01:26:22.416Z,3.50
2022-12-20T01:28:53.602Z,3.50
2022-12-20T01:31:20.988Z,3.50
2022-12-20T01:33:49.348Z,3.50
2022-12-20T01:36:18.907Z,3.50
2022-12-20T01:38:47.184Z,3.50
2022-12-20T01:41:23.408Z,3.60
2022-12-20T01:43:52.261Z,3.60
2022-12-20T01:46:21.613Z,3.60
2022-12-20T01:49:01.873Z,3.60
2022-12-20T01:51:32.246Z,3.60
2022-12-20T01:54:07.838Z,3.60
2022-12-20T01:56:36.435Z,3.60
2022-12-20T01:59:04.009Z,3.60
2022-12-20T02:01:31.278Z,3.60
2022-12-20T02:04:00.203Z,3.60
2022-12-20T02:06:28.147Z,3.60
2022-12-20T02:08:59.548Z,3.70
2022-12-20T02:11:59.334Z,3.70
2022-12-20T02:14:29.513Z,3.70
2022-12-20T02:17:32.729Z,3.70
2022-12-20T02:20:31.959Z,3.80
2022-12-20T02:23:20.062Z,3.80
2022-12-20T02:26:30.378Z,3.80
2022-12-20T02:29:07.863Z,3.90
2022-12-20T02:31:50.548Z,3.90
2022-12-20T02:34:18.876Z,3.90
2022-12-20T02:36:46.006Z,4.00
2022-12-20T02:39:17.361Z,4.00
2022-12-20T02:41:51.056Z,4.10
2022-12-20T02:44:39.570Z,4.10
2022-12-20T02:47:14.217Z,4.10
2022-12-20T02:49:46.900Z,4.20
2022-12-20T02:52:15.108Z,4.20
2022-12-20T02:54:42.293Z,4.20
2022-12-20T02:57:20.596Z,4.30
2022-12-20T03:00:08.925Z,4.30
2022-12-20T03:02:55.524Z,4.30
2022-12-20T03:05:25.866Z,4.40
2022-12-20T03:07:53.574Z,4.40
2022-12-20T03:10:22.269Z,4.40
2022-12-20T03:12:49.378Z,4.40
2022-12-20T03:15:17.223Z,4.40
2022-12-20T03:17:44.485Z,4.40
2022-12-20T03:20:11.796Z,4.40
2022-12-20T03:22:39.470Z,4.40
2022-12-20T03:25:07.415Z,4.40
2022-12-20T03:27:34.856Z,4.40
2022-12-20T03:30:02.123Z,4.40
2022-12-20T03:32:29.485Z,4.50
2022-12-20T03:34:56.993Z,4.50
2022-12-20T03:37:24.251Z,4.50
2022-12-20T03:39:51.450Z,4.50
2022-12-20T03:42:18.825Z,4.50
2022-12-20T03:44:46.038Z,4.50
2022-12-20T03:47:13.637Z,4.50
2022-12-20T03:49:41.101Z,4.60
2022-12-20T03:52:08.854Z,4.60
2022-12-20T03:54:36.091Z,4.60
2022-12-20T03:57:03.378Z,4.60
2022-12-20T03:59:30.747Z,4.70
2022-12-20T04:01:58.003Z,4.70
2022-12-20T04:04:25.338Z,4.80
2022-12-20T04:06:52.684Z,4.80
2022-12-20T04:09:20.029Z,4.80
2022-12-20T04:11:47.190Z,4.90
2022-12-20T04:14:14.275Z,4.90
2022-12-20T04:16:41.615Z,4.90
2022-12-20T04:19:08.786Z,5.00
2022-12-20T04:21:36.760Z,5.00
2022-12-20T04:24:04.886Z,5.10
2022-12-20T04:26:32.362Z,5.00
2022-12-20T04:28:59.483Z,5.10
2022-12-20T04:31:27.006Z,5.10
2022-12-20T04:33:54.261Z,5.10
2022-12-20T04:36:21.636Z,5.10
2022-12-20T04:38:48.849Z,5.10
2022-12-20T04:41:23.197Z,5.10
2022-12-20T04:43:52.107Z,5.10
2022-12-20T04:46:19.905Z,5.20
2022-12-20T04:48:57.158Z,5.20
2022-12-20T04:51:26.042Z,5.20
2022-12-20T04:53:53.228Z,5.20
2022-12-20T04:56:23.902Z,5.20
2022-12-20T04:58:53.288Z,5.20
2022-12-20T05:01:21.256Z,5.20
2022-12-20T05:03:49.729Z,5.30
2022-12-20T05:06:17.743Z,5.30
2022-12-20T05:08:45.402Z,5.30
2022-12-20T05:11:13.184Z,5.30
2022-12-20T05:13:40.807Z,5.20
2022-12-20T05:16:08.429Z,5.20
2022-12-20T05:18:36.112Z,5.30
2022-12-20T05:21:22.481Z,5.30
2022-12-20T05:24:08.577Z,5.30
2022-12-20T05:26:38.197Z,5.30
2022-12-20T05:29:06.197Z,5.30
2022-12-20T05:31:33.913Z,5.30
2022-12-20T05:34:01.569Z,5.30
2022-12-20T05:36:28.768Z,5.30
2022-12-20T05:39:03.383Z,5.30
2022-12-20T05:41:31.308Z,5.30
2022-12-20T05:43:58.706Z,5.30
2022-12-20T05:46:26.017Z,5.30
2022-12-20T05:48:53.332Z,5.30
2022-12-20T05:51:20.440Z,5.30
2022-12-20T05:53:47.604Z,5.40
2022-12-20T05:56:14.876Z,5.40
2022-12-20T05:58:42.259Z,5.40
2022-12-20T06:01:10.798Z,5.40
2022-12-20T06:03:39.605Z,5.40
2022-12-20T06:06:13.900Z,5.50
2022-12-20T06:08:42.096Z,5.50
2022-12-20T06:11:09.290Z,5.60
2022-12-20T06:13:36.643Z,5.50
2022-12-20T06:16:04.296Z,5.50
2022-12-20T06:18:31.393Z,5.50
2022-12-20T06:20:58.471Z,5.60
2022-12-20T06:23:26.227Z,5.50
2022-12-20T06:25:53.868Z,5.60
2022-12-20T06:28:22.441Z,5.60
2022-12-20T06:30:57.223Z,5.60
2022-12-20T06:33:25.420Z,5.60
2022-12-20T06:35:53.371Z,5.60
2022-12-20T06:38:20.680Z,5.60
2022-12-20T06:40:47.933Z,5.60
2022-12-20T06:43:15.209Z,5.70
2022-12-20T06:45:42.869Z,5.60
2022-12-20T06:48:10.663Z,5.70
2022-12-20T06:50:41.222Z,5.60
2022-12-20T06:53:08.523Z,5.60
2022-12-20T06:55:35.735Z,5.70
2022-12-20T06:58:04.442Z,5.70
2022-12-20T07:00:32.126Z,5.70
2022-12-20T07:02:59.982Z,5.70
2022-12-20T07:05:27.801Z,5.70
2022-12-20T07:07:55.084Z,5.80
2022-12-20T07:10:22.450Z,5.80
2022-12-20T07:12:55.724Z,5.80
2022-12-20T07:15:23.216Z,5.80
2022-12-20T07:17:50.345Z,5.80
2022-12-20T07:20:18.078Z,5.80
2022-12-20T07:22:48.249Z,5.80
2022-12-20T07:25:15.432Z,5.80
2022-12-20T07:27:42.566Z,5.80
2022-12-20T07:30:11.155Z,5.80
2022-12-20T07:32:38.385Z,5.90
2022-12-20T07:35:06.104Z,5.90
2022-12-20T07:37:33.282Z,5.90
2022-12-20T07:40:00.594Z,5.90
2022-12-20T07:42:35.567Z,5.90
2022-12-20T07:45:05.651Z,5.90
2022-12-20T07:47:36.217Z,5.80
2022-12-20T07:50:04.170Z,5.80
2022-12-20T07:52:34.738Z,5.90
2022-12-20T07:55:06.997Z,5.90
2022-12-20T07:57:51.633Z,5.90
2022-12-20T08:00:19.113Z,6.00
2022-12-20T08:02:53.338Z,6.00
2022-12-20T08:05:21.958Z,6.00
2022-12-20T08:07:53.482Z,6.00
2022-12-20T08:10:24.219Z,6.10
2022-12-20T08:12:52.077Z,6.10
2022-12-20T08:15:21.771Z,6.10
2022-12-20T08:17:49.673Z,6.10
2022-12-20T08:20:18.214Z,6.10
2022-12-20T08:22:45.757Z,6.10
2022-12-20T08:25:15.599Z,6.20
2022-12-20T08:27:42.754Z,6.20
2022-12-20T08:30:11.054Z,6.20
2022-12-20T08:32:38.783Z,6.30
2022-12-20T08:35:06.986Z,6.30
2022-12-20T08:37:34.462Z,6.30
2022-12-20T08:40:01.774Z,6.30
2022-12-20T08:42:30.156Z,6.40
2022-12-20T08:44:57.366Z,6.40
2022-12-20T08:47:24.608Z,6.40
2022-12-20T08:49:51.729Z,6.40
2022-12-20T08:52:18.842Z,6.40
2022-12-20T08:54:46.468Z,6.50
2022-12-20T08:57:13.910Z,6.50
2022-12-20T08:59:43.739Z,6.50
2022-12-20T09:02:11.078Z,6.50
2022-12-20T09:04:39.109Z,6.50
2022-12-20T09:07:06.209Z,6.50
2022-12-20T09:09:33.214Z,6.50
2022-12-20T09:12:00.297Z,6.50
2022-12-20T09:14:28.178Z,6.50
2022-12-20T09:16:55.330Z,6.50
2022-12-20T09:19:22.443Z,6.50
2022-12-20T09:21:49.563Z,6.60
2022-12-20T09:24:17.639Z,6.60
2022-12-20T09:26:45.705Z,6.60
2022-12-20T09:29:22.993Z,6.60
2022-12-20T09:31:53.343Z,6.60
2022-12-20T09:34:20.532Z,6.60
2022-12-20T09:36:47.968Z,6.70
2022-12-20T09:39:14.906Z,6.70
2022-12-20T09:41:44.283Z,6.70
2022-12-20T09:44:25.086Z,6.70
2022-12-20T09:47:10.509Z,6.80
2022-12-20T09:49:42.329Z,6.80
2022-12-20T09:52:39.235Z,6.90
2022-12-20T09:55:46.093Z,6.90
2022-12-20T09:58:45.983Z,7.00
2022-12-20T10:01:24.902Z,7.10
2022-12-20T10:03:54.628Z,7.10
2022-12-20T10:06:29.248Z,7.10
2022-12-20T10:09:05.935Z,7.20
2022-12-20T10:11:58.135Z,7.20
2022-12-20T10:14:38.439Z,7.30
2022-12-20T10:17:19.523Z,7.30
2022-12-20T10:19:55.309Z,7.30
2022-12-20T10:22:44.284Z,7.30
2022-12-20T10:25:23.251Z,7.40
2022-12-20T10:27:53.869Z,7.40
2022-12-20T10:30:24.872Z,7.40
2022-12-20T10:32:55.178Z,7.50
2022-12-20T10:35:25.759Z,7.50
2022-12-20T10:38:09.331Z,7.50
2022-12-20T10:41:10.113Z,7.60
2022-12-20T10:43:28.786Z,7.60
2022-12-20T10:46:00.941Z,7.60
2022-12-20T10:48:34.452Z,7.60
2022-12-20T10:51:16.784Z,7.70
2022-12-20T10:53:59.685Z,7.70
2022-12-20T10:56:39.307Z,7.70
2022-12-20T10:59:18.547Z,7.70
2022-12-20T11:01:48.262Z,7.80
2022-12-20T11:04:31.844Z,7.80
2022-12-20T11:07:22.487Z,7.80
2022-12-20T11:09:55.620Z,7.90
2022-12-20T11:12:23.257Z,7.90
2022-12-20T11:14:50.777Z,8.00
2022-12-20T11:17:49.688Z,7.90
2022-12-20T11:20:41.575Z,8.00
2022-12-20T11:23:20.633Z,8.00
2022-12-20T11:26:05.778Z,8.10
2022-12-20T11:28:57.296Z,8.10
2022-12-20T11:31:36.239Z,8.10
2022-12-20T11:34:18.007Z,8.10
2022-12-20T11:37:03.222Z,8.10
2022-12-20T11:39:43.708Z,8.10
2022-12-20T11:42:59.011Z,8.10
2022-12-20T11:45:57.626Z,8.20
2022-12-20T11:48:46.416Z,8.20
2022-12-20T11:51:26.969Z,8.20
2022-12-20T11:54:08.724Z,8.20
2022-12-20T11:56:43.282Z,8.20
2022-12-20T11:59:30.295Z,8.30
2022-12-20T12:02:12.789Z,8.30
2022-12-20T12:04:56.276Z,8.30
2022-12-20T12:07:29.099Z,8.40
2022-12-20T12:10:13.365Z,8.40
2022-12-20T12:12:45.550Z,8.40
2022-12-20T12:15:22.857Z,8.40
2022-12-20T12:18:05.509Z,8.40
2022-12-20T12:20:46.987Z,8.40
2022-12-20T12:23:23.845Z,8.40
2022-12-20T12:25:50.979Z,8.40
2022-12-20T12:28:20.219Z,8.40
2022-12-20T12:31:04.796Z,8.40
2022-12-20T12:33:40.852Z,8.50
2022-12-20T12:36:35.809Z,8.50
2022-12-20T12:39:38.169Z,8.40
2022-12-20T12:42:18.914Z,8.40
2022-12-20T12:45:04.075Z,8.40
2022-12-20T12:47:42.370Z,8.40
2022-12-20T12:50:25.984Z,8.40
2022-12-20T12:53:00.906Z,8.40
2022-12-20T12:55:41.646Z,8.40
2022-12-20T12:58:48.392Z,8.40
2022-12-20T13:01:54.014Z,8.50
2022-12-20T13:04:21.458Z,8.40
2022-12-20T13:06:49.024Z,8.50
2022-12-20T13:09:31.083Z,8.50
2022-12-20T13:12:18.943Z,8.50
2022-12-20T13:14:46.217Z,8.40
2022-12-20T13:17:25.887Z,8.50
2022-12-20T13:19:55.765Z,8.50
2022-12-20T13:22:26.746Z,8.50
2022-12-20T13:24:57.780Z,8.50
2022-12-20T13:27:39.352Z,8.50
2022-12-20T13:30:13.509Z,8.50
2022-12-20T13:33:03.092Z,8.50
2022-12-20T13:35:51.745Z,8.50
2022-12-20T13:38:39.137Z,8.50
2022-12-20T13:41:20.619Z,8.50
2022-12-20T13:43:49.775Z,8.50
2022-12-20T13:46:41.162Z,8.60
2022-12-20T13:49:12.408Z,8.60
2022-12-20T13:51:39.922Z,8.60
2022-12-20T13:54:25.204Z,8.50
2022-12-20T13:56:55.304Z,8.60
2022-12-20T13:59:29.515Z,8.50
2022-12-20T14:01:59.665Z,8.60
2022-12-20T14:04:41.977Z,8.60
2022-12-20T14:07:12.559Z,8.60
2022-12-20T14:09:39.882Z,8.60
2022-12-20T14:12:16.670Z,8.50
2022-12-20T14:14:48.446Z,8.60
2022-12-20T14:17:34.184Z,8.50
2022-12-20T14:20:12.652Z,8.50
2022-12-20T14:22:51.532Z,8.50
2022-12-20T14:25:48.961Z,8.50
2022-12-20T14:28:34.065Z,8.50
2022-12-20T14:31:02.494Z,8.40
2022-12-20T14:33:37.655Z,8.40
2022-12-20T14:36:16.812Z,8.40
2022-12-20T14:38:54.425Z,8.40
2022-12-20T14:41:38.502Z,8.40
2022-12-20T14:44:08.383Z,8.40
2022-12-20T14:46:43.593Z,8.40
2022-12-20T14:49:23.061Z,8.40
2022-12-20T14:51:51.444Z,8.40
2022-12-20T14:57:39.042Z,8.40
2022-12-20T15:00:28.194Z,8.40
2022-12-20T15:03:03.339Z,8.30
2022-12-20T15:05:37.897Z,8.30
2022-12-20T15:08:11.095Z,8.30
2022-12-20T15:10:38.738Z,8.30
2022-12-20T15:13:14.692Z,8.30
2022-12-20T15:15:42.362Z,8.30
2022-12-20T15:18:12.803Z,8.30
2022-12-20T15:20:41.978Z,8.30
2022-12-20T15:23:20.788Z,8.20
2022-12-20T15:25:48.775Z,8.20
2022-12-20T15:28:25.477Z,8.20
2022-12-20T15:30:53.809Z,8.20
2022-12-20T15:33:27.233Z,8.10
2022-12-20T15:35:54.670Z,8.10
2022-12-20T15:38:40.632Z,8.10
2022-12-20T15:41:27.448Z,8.10
2022-12-20T15:43:57.702Z,8.00
2022-12-20T15:46:25.240Z,8.00
2022-12-20T15:48:56.297Z,8.00
2022-12-20T15:51:33.727Z,8.00
2022-12-20T15:54:03.175Z,8.00
2022-12-20T15:56:30.985Z,8.00
2022-12-20T15:58:58.130Z,7.90
2022-12-20T16:01:33.258Z,7.90
2022-12-20T16:04:17.200Z,7.90
2022-12-20T16:06:45.405Z,8.00
2022-12-20T16:09:12.789Z,8.00
2022-12-20T16:11:40.812Z,8.00
2022-12-20T16:14:13.960Z,8.00
2022-12-20T16:16:41.133Z,8.00
2022-12-20T16:19:08.665Z,8.00
2022-12-20T16:21:41.931Z,8.00
2022-12-20T16:24:12.970Z,8.10
2022-12-20T16:26:40.180Z,8.10
2022-12-20T16:29:08.371Z,8.10
2022-12-20T16:31:38.203Z,8.10
2022-12-20T16:34:10.565Z,8.10
2022-12-20T16:36:38.482Z,8.10
2022-12-20T16:39:05.738Z,8.20
2022-12-20T16:41:34.232Z,8.20
2022-12-20T16:44:03.614Z,8.20
2022-12-20T16:46:32.590Z,8.20
2022-12-20T16:49:01.008Z,8.20
2022-12-20T16:51:48.538Z,8.20
2022-12-20T16:54:21.776Z,8.10
2022-12-20T16:56:56.225Z,8.10
2022-12-20T16:59:26.480Z,8.10
2022-12-20T17:01:56.063Z,8.10
2022-12-20T17:04:24.680Z,8.10
2022-12-20T17:06:51.825Z,8.10
2022-12-20T17:09:20.406Z,8.10
2022-12-20T17:11:50.421Z,8.10
2022-12-20T17:14:20.062Z,8.10
2022-12-20T17:16:47.580Z,8.10
2022-12-20T17:19:14.933Z,8.10
2022-12-20T17:24:30.812Z,8.20
2022-12-20T17:26:58.052Z,8.20
2022-12-20T17:29:25.349Z,8.30
2022-12-20T17:31:52.775Z,8.30
2022-12-20T17:34:23.168Z,8.30
2022-12-20T17:36:52.428Z,8.40
2022-12-20T17:39:19.639Z,8.40
2022-12-20T17:41:47.630Z,8.40
2022-12-20T17:44:20.809Z,8.40
2022-12-20T17:46:50.877Z,8.50
2022-12-20T17:49:18.310Z,8.50
2022-12-20T17:51:46.248Z,8.50
2022-12-20T17:54:25.394Z,8.50
2022-12-20T17:56:53.905Z,8.50
2022-12-20T17:59:22.585Z,8.50
2022-12-20T18:01:50.037Z,8.50
2022-12-20T18:04:17.583Z,8.50
2022-12-20T18:06:46.594Z,8.50
2022-12-20T18:09:19.799Z,8.50
2022-12-20T18:11:49.690Z,8.60
2022-12-20T18:14:17.465Z,8.60
2022-12-20T18:16:44.827Z,8.60
2022-12-20T18:19:19.400Z,8.50
2022-12-20T18:21:48.052Z,8.50
2022-12-20T18:24:16.387Z,8.60
2022-12-20T18:26:45.134Z,8.60
2022-12-20T18:29:12.456Z,8.60
2022-12-20T18:31:40.248Z,8.60
2022-12-20T18:34:07.715Z,8.60
2022-12-20T18:36:37.623Z,8.60
2022-12-20T18:39:06.812Z,8.60
2022-12-20T18:41:35.035Z,8.60
2022-12-20T18:44:04.807Z,8.60
2022-12-20T18:46:33.374Z,8.60
2022-12-20T18:49:01.780Z,8.60
2022-12-20T18:51:38.371Z,8.60
2022-12-20T18:54:08.247Z,8.60
2022-12-20T18:56:37.877Z,8.60
2022-12-20T18:59:14.152Z,8.60
2022-12-20T19:01:43.183Z,8.60
2022-12-20T19:04:11.303Z,8.60
2022-12-20T19:06:38.881Z,8.60
2022-12-20T19:09:12.223Z,8.60
2022-12-20T19:11:40.450Z,8.60
2022-12-20T19:14:08.537Z,8.60
2022-12-20T19:16:36.359Z,8.60
2022-12-20T19:19:04.506Z,8.70
2022-12-20T19:21:35.871Z,8.70
2022-12-20T19:24:07.598Z,8.70
2022-12-20T19:26:36.838Z,8.70
2022-12-20T19:29:05.495Z,8.70
2022-12-20T19:31:34.594Z,8.70
2022-12-20T19:34:04.523Z,8.70
2022-12-20T19:36:38.118Z,8.70
2022-12-20T19:39:07.935Z,8.80
2022-12-20T19:41:35.983Z,8.80
2022-12-20T19:44:04.577Z,8.80
2022-12-20T19:46:32.089Z,8.80
2022-12-20T19:49:00.489Z,8.80
2022-12-20T19:51:29.382Z,8.80
2022-12-20T19:53:58.407Z,8.80
2022-12-20T19:56:31.830Z,8.80
2022-12-20T19:58:59.042Z,8.80
2022-12-20T20:01:27.935Z,8.80
2022-12-20T20:03:58.114Z,8.80
2022-12-20T20:06:27.235Z,8.80
2022-12-20T20:08:57.793Z,8.80
2022-12-20T20:11:25.730Z,8.80
2022-12-20T20:13:53.046Z,8.80
2022-12-20T20:16:22.888Z,8.80
2022-12-20T20:18:50.955Z,8.80
2022-12-20T20:21:22.088Z,8.80
2022-12-20T20:23:53.907Z,8.80
2022-12-20T20:26:24.085Z,8.80
2022-12-20T20:28:51.650Z,8.80
2022-12-20T20:31:20.457Z,8.70
2022-12-20T20:33:48.178Z,8.80
2022-12-20T20:36:21.744Z,8.80
2022-12-20T20:38:49.876Z,8.80
2022-12-20T20:41:17.716Z,8.80
2022-12-20T20:43:45.080Z,8.80
2022-12-20T20:46:14.492Z,8.80
2022-12-20T20:48:43.245Z,8.80
2022-12-20T20:51:11.502Z,8.70
2022-12-20T20:53:39.579Z,8.70
2022-12-20T20:56:10.043Z,8.70
2022-12-20T20:58:38.483Z,8.70
2022-12-20T21:01:12.119Z,8.70
2022-12-20T21:03:40.555Z,8.70
2022-12-20T21:08:56.080Z,8.70
2022-12-20T21:11:23.841Z,8.70
2022-12-20T21:13:51.122Z,8.70
2022-12-20T21:16:22.451Z,8.70
2022-12-20T21:18:54.453Z,8.70
2022-12-20T21:21:23.134Z,8.70
2022-12-20T21:23:50.739Z,8.70
2022-12-20T21:26:19.979Z,8.70
2022-12-20T21:31:19.997Z,8.70
2022-12-20T21:33:47.464Z,8.70
2022-12-20T21:36:17.390Z,8.70
2022-12-20T21:38:50.447Z,8.70
2022-12-20T21:41:19.228Z,8.70
2022-12-20T21:43:46.833Z,8.70
2022-12-20T21:46:14.118Z,8.70
2022-12-20T21:48:43.321Z,8.70
2022-12-20T21:51:15.532Z,8.70
2022-12-20T21:53:50.411Z,8.70
2022-12-20T21:56:19.277Z,8.70
2022-12-20T21:58:47.271Z,8.70
2022-12-20T22:01:18.652Z,8.60
2022-12-20T22:03:55.552Z,8.60
2022-12-20T22:06:23.202Z,8.60
2022-12-20T22:08:50.615Z,8.60
2022-12-20T22:11:18.831Z,8.60
2022-12-20T22:13:47.435Z,8.60
2022-12-20T22:16:17.538Z,8.60
2022-12-20T22:18:48.537Z,8.60
2022-12-20T22:21:17.102Z,8.60
2022-12-20T22:23:44.380Z,8.60
2022-12-20T22:26:15.797Z,8.60
2022-12-20T22:28:51.487Z,8.60
2022-12-20T22:31:19.820Z,8.70
2022-12-20T22:33:47.884Z,8.70
2022-12-20T22:36:16.267Z,8.70
2022-12-20T22:38:44.025Z,8.60
2022-12-20T22:41:26.637Z,8.60
2022-12-20T22:43:54.527Z,8.60
2022-12-20T22:49:06.854Z,8.60
2022-12-20T22:51:36.877Z,8.60
2022-12-20T22:54:04.046Z,8.60
2022-12-20T22:56:31.139Z,8.60
2022-12-20T22:58:58.290Z,8.60
2022-12-20T23:01:25.395Z,8.60
2022-12-20T23:03:52.660Z,8.60
2022-12-20T23:06:21.205Z,8.70
2022-12-20T23:08:49.226Z,8.60
2022-12-20T23:11:41.553Z,8.70
2022-12-20T23:14:33.941Z,8.60
2022-12-20T23:17:01.692Z,8.70
2022-12-20T23:19:49.447Z,8.70
2022-12-20T23:22:35.173Z,8.60
2022-12-20T23:25:01.958Z,8.60
2022-12-20T23:27:29.303Z,8.60
2022-12-20T23:29:56.426Z,8.60
2022-12-20T23:32:24.293Z,8.60
2022-12-20T23:34:51.652Z,8.60
2022-12-20T23:37:18.972Z,8.60
2022-12-20T23:39:46.117Z,8.60
2022-12-20T23:42:13.223Z,8.60
2022-12-20T23:44:40.322Z,8.60
2022-12-20T23:47:07.563Z,8.60
2022-12-20T23:49:34.810Z,8.70
2022-12-20T23:52:01.868Z,8.60
2022-12-20T23:54:28.999Z,8.60
2022-12-20T23:56:56.389Z,8.60
2022-12-20T23:59:24.856Z,8.60
